createdAt,value
2023-03-06T00:00:00.025Z,4.2
2023-03-06T00:01:17.023Z,4.2
2023-03-06T00:02:34.018Z,4
2023-03-06T00:03:51.062Z,3.8
2023-03-06T00:05:08.015Z,3.5
2023-03-06T00:06:25.006Z,3.3
2023-03-06T00:07:42.004Z,3.1
2023-03-06T00:08:59.001Z,3
2023-03-06T00:10:16.060Z,3.1
2023-03-06T00:11:33.030Z,3.2
2023-03-06T00:12:50.015Z,3.2
2023-03-06T00:14:07.008Z,3.4
2023-03-06T00:15:24.165Z,3.5
2023-03-06T00:16:41.010Z,3.5
2023-03-06T00:17:58.013Z,3.5
2023-03-06T00:19:15.006Z,3.5
2023-03-06T00:20:32.050Z,3.6
2023-03-06T00:21:49.012Z,3.6
2023-03-06T00:23:06.022Z,3.6
2023-03-06T00:24:23.057Z,3.6
2023-03-06T00:25:40.056Z,3.6
2023-03-06T00:26:57.028Z,3.6
2023-03-06T00:28:14.047Z,3.7
2023-03-06T00:29:31.021Z,3.7
2023-03-06T00:30:48.108Z,3.8
2023-03-06T00:32:05.080Z,3.8
2023-03-06T00:33:22.036Z,3.8
2023-03-06T00:34:39.066Z,3.8
2023-03-06T00:35:56.056Z,3.8
2023-03-06T00:37:13.111Z,3.7
2023-03-06T00:38:30.033Z,3.8
2023-03-06T00:39:47.060Z,3.7
2023-03-06T00:41:04.039Z,3.9
2023-03-06T00:42:21.080Z,3.8
2023-03-06T00:43:38.051Z,3.8
2023-03-06T00:44:55.152Z,3.8
2023-03-06T00:46:12.111Z,3.8
2023-03-06T00:47:29.066Z,3.7
2023-03-06T00:48:46.056Z,3.6
2023-03-06T00:50:03.080Z,3.6
2023-03-06T00:51:20.080Z,3.6
2023-03-06T00:52:37.100Z,3.7
2023-03-06T00:53:54.076Z,3.6
2023-03-06T00:55:11.089Z,3.4
2023-03-06T00:56:28.111Z,3.1
2023-03-06T00:57:45.151Z,2.8
2023-03-06T00:59:02.133Z,2.6
2023-03-06T01:00:19.083Z,2.5
2023-03-06T01:01:36.174Z,2.4
2023-03-06T01:02:53.059Z,2.2
2023-03-06T01:04:10.063Z,2.1
2023-03-06T01:05:27.068Z,2.1
2023-03-06T01:06:44.096Z,2.1
2023-03-06T01:08:01.151Z,2.2
2023-03-06T01:09:18.115Z,2.4
2023-03-06T01:10:35.153Z,2.6
2023-03-06T01:11:52.159Z,2.8
2023-03-06T01:13:09.085Z,3
2023-03-06T01:14:26.194Z,3.2
2023-03-06T01:15:43.082Z,3.3
2023-03-06T01:17:00.135Z,3.4
2023-03-06T01:18:17.096Z,3.4
2023-03-06T01:19:34.098Z,3.3
2023-03-06T01:20:51.122Z,3.3
2023-03-06T01:22:08.078Z,3.2
2023-03-06T01:23:25.091Z,3.2
2023-03-06T01:24:42.078Z,3.1
2023-03-06T01:25:59.119Z,2.9
2023-03-06T01:27:16.341Z,2.8
2023-03-06T01:28:33.135Z,2.8
2023-03-06T01:29:50.105Z,2.8
2023-03-06T01:31:07.446Z,2.8
2023-03-06T01:32:24.182Z,2.8
2023-03-06T01:33:41.126Z,2.8
2023-03-06T01:34:58.109Z,2.8
2023-03-06T01:36:15.125Z,2.7
2023-03-06T01:37:32.099Z,2.8
2023-03-06T01:38:49.097Z,2.7
2023-03-06T01:40:06.126Z,2.6
2023-03-06T01:41:23.138Z,2.4
2023-03-06T01:42:40.145Z,2.3
2023-03-06T01:43:57.129Z,2
2023-03-06T01:45:14.148Z,1.9
2023-03-06T01:46:31.166Z,1.8
2023-03-06T01:47:48.176Z,1.8
2023-03-06T01:49:05.155Z,1.8
2023-03-06T01:50:22.114Z,1.8
2023-03-06T01:51:39.292Z,1.7
2023-03-06T01:52:56.126Z,1.5
2023-03-06T01:54:13.154Z,1.2
2023-03-06T01:55:30.143Z,0.8
2023-03-06T01:56:47.179Z,0.4
2023-03-06T01:58:04.167Z,0.3
2023-03-06T01:59:21.132Z,0.4
2023-03-06T02:00:38.133Z,0.4
2023-03-06T02:01:55.309Z,0.4
2023-03-06T02:03:12.237Z,0.5
2023-03-06T02:04:29.145Z,0.6
2023-03-06T02:05:46.142Z,0.8
2023-03-06T02:07:03.176Z,1.1
2023-03-06T02:08:20.146Z,1.4
2023-03-06T02:09:37.151Z,1.7
2023-03-06T02:10:54.150Z,2
2023-03-06T02:12:11.204Z,2.4
2023-03-06T02:13:28.150Z,2.5
2023-03-06T02:14:45.152Z,2.5
2023-03-06T02:16:02.202Z,2.4
2023-03-06T02:17:19.156Z,2.3
2023-03-06T02:18:36.189Z,2.1
2023-03-06T02:19:53.162Z,1.9
2023-03-06T02:21:10.205Z,1.8
2023-03-06T02:22:27.164Z,1.8
2023-03-06T02:23:44.167Z,1.8
2023-03-06T02:25:01.228Z,1.9
2023-03-06T02:26:18.179Z,1.9
2023-03-06T02:27:35.267Z,2
2023-03-06T02:28:52.178Z,2.1
2023-03-06T02:30:09.275Z,2.2
2023-03-06T02:31:26.181Z,2.3
2023-03-06T02:32:43.219Z,2.1
2023-03-06T02:34:00.236Z,2.1
2023-03-06T02:35:17.235Z,1.9
2023-03-06T02:36:34.922Z,2.1
2023-03-06T02:37:52.236Z,2.2
2023-03-06T02:39:09.195Z,1.9
2023-03-06T02:40:26.400Z,1.8
2023-03-06T02:41:43.191Z,1.8
2023-03-06T02:43:00.248Z,2
2023-03-06T02:44:17.235Z,2
2023-03-06T02:45:35.007Z,1.9
2023-03-06T02:46:52.254Z,1.7
2023-03-06T02:48:09.267Z,1.6
2023-03-06T02:49:26.615Z,1.3
2023-03-06T02:50:43.252Z,1.2
2023-03-06T02:52:00.198Z,0.9
2023-03-06T02:53:17.298Z,0.8
2023-03-06T02:54:34.198Z,0.8
2023-03-06T02:55:51.282Z,0.7
2023-03-06T02:57:08.245Z,0.8
2023-03-06T02:58:25.975Z,1
2023-03-06T02:59:43.576Z,1.2
2023-03-06T03:01:00.340Z,1.3
2023-03-06T03:02:17.258Z,1.2
2023-03-06T03:03:34.259Z,1.2
2023-03-06T03:04:51.302Z,1.2
2023-03-06T03:06:08.236Z,1.2
2023-03-06T03:07:25.267Z,1.2
2023-03-06T03:08:42.226Z,1.3
2023-03-06T03:09:59.210Z,1.5
2023-03-06T03:11:16.224Z,1.6
2023-03-06T03:12:33.318Z,1.8
2023-03-06T03:13:50.295Z,1.9
2023-03-06T03:15:07.220Z,2.1
2023-03-06T03:16:24.227Z,2.3
2023-03-06T03:17:41.476Z,2.3
2023-03-06T03:18:58.453Z,2.2
2023-03-06T03:20:15.324Z,2.1
2023-03-06T03:21:32.223Z,2
2023-03-06T03:22:49.259Z,2
2023-03-06T03:24:06.238Z,1.9
2023-03-06T03:25:23.256Z,2
2023-03-06T03:26:40.273Z,2.1
2023-03-06T03:27:57.276Z,2.2
2023-03-06T03:29:14.273Z,2.3
2023-03-06T03:30:31.251Z,2.5
2023-03-06T03:31:48.286Z,2.4
2023-03-06T03:33:05.261Z,2.3
2023-03-06T03:34:22.255Z,2.4
2023-03-06T03:35:39.313Z,2.6
2023-03-06T03:36:56.978Z,2.5
2023-03-06T03:38:14.281Z,2.3
2023-03-06T03:39:31.364Z,2
2023-03-06T03:40:48.274Z,1.9
2023-03-06T03:42:05.272Z,1.9
2023-03-06T03:43:22.288Z,2.1
2023-03-06T03:44:39.261Z,2.1
2023-03-06T03:45:56.310Z,2.1
2023-03-06T03:47:13.274Z,2.2
2023-03-06T03:48:30.322Z,2.1
2023-03-06T03:49:47.832Z,2
2023-03-06T03:51:04.299Z,2
2023-03-06T03:52:21.297Z,2
2023-03-06T03:53:38.321Z,2.1
2023-03-06T03:54:55.276Z,2.1
2023-03-06T03:56:12.286Z,2.1
2023-03-06T03:57:29.292Z,2.1
2023-03-06T03:58:46.345Z,2.2
2023-03-06T04:00:03.317Z,2.4
2023-03-06T04:01:20.284Z,2.4
2023-03-06T04:02:37.347Z,2.2
2023-03-06T04:03:54.350Z,2.1
2023-03-06T04:05:11.352Z,2
2023-03-06T04:06:28.319Z,1.9
2023-03-06T04:07:45.306Z,1.9
2023-03-06T04:09:02.378Z,1.9
2023-03-06T04:10:19.301Z,1.9
2023-03-06T04:11:36.300Z,2
2023-03-06T04:12:53.299Z,2.1
2023-03-06T04:14:10.338Z,2.2
2023-03-06T04:15:27.335Z,2
2023-03-06T04:16:44.301Z,2
2023-03-06T04:18:01.302Z,1.9
2023-03-06T04:19:18.368Z,1.8
2023-03-06T04:20:35.310Z,1.8
2023-03-06T04:21:52.324Z,1.6
2023-03-06T04:23:09.309Z,1.5
2023-03-06T04:24:26.365Z,1.4
2023-03-06T04:25:43.325Z,1.4
2023-03-06T04:27:01.091Z,1.3
2023-03-06T04:28:18.380Z,1.5
2023-03-06T04:29:35.356Z,1.8
2023-03-06T04:30:52.330Z,1.8
2023-03-06T04:32:09.349Z,1.9
2023-03-06T04:33:26.421Z,2.2
2023-03-06T04:34:43.337Z,2.6
2023-03-06T04:36:00.343Z,2.9
2023-03-06T04:37:17.376Z,3.2
2023-03-06T04:38:34.368Z,3.4
2023-03-06T04:39:51.374Z,3.6
2023-03-06T04:41:08.324Z,3.7
2023-03-06T04:42:25.334Z,3.5
2023-03-06T04:43:42.365Z,3.3
2023-03-06T04:44:59.338Z,3
2023-03-06T04:46:16.374Z,2.8
2023-03-06T04:47:33.350Z,2.8
2023-03-06T04:48:50.374Z,2.5
2023-03-06T04:50:07.350Z,2.5
2023-03-06T04:51:24.429Z,2.7
2023-03-06T04:52:41.367Z,2.8
2023-03-06T04:53:58.390Z,2.8
2023-03-06T04:55:15.602Z,2.8
2023-03-06T04:56:32.360Z,2.7
2023-03-06T04:57:49.363Z,2.6
2023-03-06T04:59:06.392Z,2.7
2023-03-06T05:00:23.350Z,2.9
2023-03-06T05:01:40.358Z,3
2023-03-06T05:02:57.375Z,3.2
2023-03-06T05:04:14.400Z,3.1
2023-03-06T05:05:31.371Z,3.1
2023-03-06T05:06:48.367Z,3.3
2023-03-06T05:08:05.393Z,3.3
2023-03-06T05:09:22.529Z,3.3
2023-03-06T05:10:39.764Z,3.3
2023-03-06T05:11:56.400Z,3.4
2023-03-06T05:13:13.403Z,3.5
2023-03-06T05:14:30.412Z,3.4
2023-03-06T05:15:47.438Z,3.4
2023-03-06T05:17:04.408Z,3.3
2023-03-06T05:18:21.375Z,3.3
2023-03-06T05:19:38.379Z,3.2
2023-03-06T05:20:55.415Z,3.2
2023-03-06T05:22:12.371Z,3.2
2023-03-06T05:23:29.512Z,3.3
2023-03-06T05:24:46.408Z,3.4
2023-03-06T05:26:03.379Z,3.5
2023-03-06T05:27:20.452Z,3.5
2023-03-06T05:28:37.386Z,3.6
2023-03-06T05:29:54.409Z,3.6
2023-03-06T05:31:11.401Z,3.6
2023-03-06T05:32:28.446Z,3.6
2023-03-06T05:33:45.401Z,3.6
2023-03-06T05:35:02.418Z,3.7
2023-03-06T05:36:19.473Z,3.8
2023-03-06T05:37:36.462Z,3.8
2023-03-06T05:38:54.335Z,3.9
2023-03-06T05:40:10.404Z,4
2023-03-06T05:41:27.403Z,4.1
2023-03-06T05:42:44.429Z,4.2
2023-03-06T05:44:01.463Z,4.3
2023-03-06T05:45:18.421Z,4.4
2023-03-06T05:46:35.455Z,4.6
2023-03-06T05:47:52.421Z,4.7
2023-03-06T05:49:09.454Z,4.6
2023-03-06T05:50:26.439Z,4.6
2023-03-06T05:51:43.458Z,4.5
2023-03-06T05:53:00.419Z,4.6
2023-03-06T05:54:17.524Z,4.5
2023-03-06T05:55:35.131Z,4.4
2023-03-06T05:56:52.444Z,4.3
2023-03-06T05:58:09.431Z,4.2
2023-03-06T05:59:26.430Z,4.1
2023-03-06T06:00:43.729Z,4.1
2023-03-06T06:02:00.452Z,4.1
2023-03-06T06:03:17.463Z,4
2023-03-06T06:04:34.443Z,4.1
2023-03-06T06:05:51.505Z,4.2
2023-03-06T06:07:08.432Z,4.4
2023-03-06T06:08:25.447Z,4.4
2023-03-06T06:09:42.458Z,4.6
2023-03-06T06:10:59.475Z,4.7
2023-03-06T06:12:16.457Z,4.8
2023-03-06T06:13:33.465Z,4.8
2023-03-06T06:14:50.465Z,4.9
2023-03-06T06:16:07.545Z,5
2023-03-06T06:17:24.473Z,5
2023-03-06T06:18:41.652Z,5.1
2023-03-06T06:19:58.514Z,5
2023-03-06T06:21:15.444Z,5
2023-03-06T06:22:32.468Z,5
2023-03-06T06:23:49.460Z,5
2023-03-06T06:25:06.548Z,5.1
2023-03-06T06:26:23.461Z,5
2023-03-06T06:27:40.459Z,5
2023-03-06T06:28:59.770Z,5.1
2023-03-06T06:30:14.685Z,5.2
2023-03-06T06:31:31.540Z,5.2
2023-03-06T06:32:48.481Z,5.3
2023-03-06T06:34:05.486Z,5.3
2023-03-06T06:35:22.538Z,5.4
2023-03-06T06:36:39.481Z,5.4
2023-03-06T06:37:56.479Z,5.6
2023-03-06T06:39:13.482Z,5.6
2023-03-06T06:40:30.551Z,5.7
2023-03-06T06:41:59.732Z,5.5
2023-03-06T06:43:04.515Z,5.4
2023-03-06T06:44:21.497Z,5.3
2023-03-06T06:45:38.498Z,5.3
2023-03-06T06:48:12.548Z,5.2
2023-03-06T06:49:29.524Z,5.1
2023-03-06T06:50:46.503Z,5
2023-03-06T06:52:03.576Z,5
2023-03-06T06:53:20.499Z,5
2023-03-06T06:54:37.527Z,4.9
2023-03-06T06:55:54.607Z,5
2023-03-06T06:57:11.558Z,5.1
2023-03-06T06:58:28.627Z,5.2
2023-03-06T06:59:45.509Z,5.4
2023-03-06T07:01:02.510Z,5.4
2023-03-06T07:02:19.662Z,5.4
2023-03-06T07:03:36.558Z,5.6
2023-03-06T07:05:03.421Z,5.7
2023-03-06T07:06:10.511Z,5.9
2023-03-06T07:07:27.538Z,6
2023-03-06T07:08:44.514Z,6
2023-03-06T07:10:01.561Z,6.1
2023-03-06T07:11:18.547Z,6.2
2023-03-06T07:12:35.558Z,6.2
2023-03-06T07:13:52.517Z,6.2
2023-03-06T07:15:09.575Z,6.1
2023-03-06T07:16:26.526Z,6.1
2023-03-06T07:17:43.660Z,6.2
2023-03-06T07:19:00.621Z,6.3
2023-03-06T07:20:17.584Z,6.5
2023-03-06T07:21:34.562Z,6.4
2023-03-06T07:22:52.047Z,6.5
2023-03-06T07:24:08.534Z,6.5
2023-03-06T07:25:25.564Z,6.5
2023-03-06T07:26:42.579Z,6.5
2023-03-06T07:27:59.704Z,6.5
2023-03-06T07:29:16.546Z,6.5
2023-03-06T07:30:33.677Z,6.5
2023-03-06T07:31:50.535Z,6.6
2023-03-06T07:33:07.557Z,6.5
2023-03-06T07:34:24.566Z,6.3
2023-03-06T07:35:41.644Z,6.3
2023-03-06T07:36:58.559Z,6.5
2023-03-06T07:38:15.563Z,6.5
2023-03-06T07:39:32.610Z,6.6
2023-03-06T07:40:50.195Z,6.6
2023-03-06T07:42:06.603Z,6.6
2023-03-06T07:43:23.585Z,6.6
2023-03-06T07:44:40.612Z,6.6
2023-03-06T07:45:57.632Z,6.5
2023-03-06T07:47:14.556Z,6.5
2023-03-06T07:48:31.581Z,6.4
2023-03-06T07:49:48.572Z,6.2
2023-03-06T07:51:05.644Z,6.1
2023-03-06T07:52:22.611Z,6.2
2023-03-06T07:53:39.605Z,6.2
2023-03-06T07:54:56.598Z,6.3
2023-03-06T07:56:13.651Z,6.3
2023-03-06T07:57:30.633Z,6.4
2023-03-06T07:58:47.649Z,6.6
2023-03-06T08:00:04.617Z,6.6
2023-03-06T08:01:21.604Z,6.7
2023-03-06T08:02:38.698Z,6.9
2023-03-06T08:03:55.683Z,6.9
2023-03-06T08:05:12.665Z,7
2023-03-06T08:06:29.605Z,7
2023-03-06T08:07:46.596Z,7.1
2023-03-06T08:09:03.631Z,7.1
2023-03-06T08:10:20.638Z,7.3
2023-03-06T08:11:37.637Z,7.6
2023-03-06T08:12:54.688Z,7.7
2023-03-06T08:14:11.599Z,7.8
2023-03-06T08:15:28.673Z,7.9
2023-03-06T08:16:45.688Z,7.9
2023-03-06T08:18:02.625Z,8
2023-03-06T08:19:19.668Z,8
2023-03-06T08:20:36.615Z,8.1
2023-03-06T08:21:53.612Z,8.2
2023-03-06T08:23:11.049Z,8.5
2023-03-06T08:24:27.608Z,8.7
2023-03-06T08:25:44.713Z,8.6
2023-03-06T08:27:04.364Z,8.6
2023-03-06T08:28:21.717Z,8.5
2023-03-06T08:29:38.826Z,8.4
2023-03-06T08:30:55.644Z,8.4
2023-03-06T08:32:12.676Z,8.5
2023-03-06T08:33:29.666Z,8.4
2023-03-06T08:34:46.641Z,8.2
2023-03-06T08:36:03.701Z,8
2023-03-06T08:37:20.911Z,7.8
2023-03-06T08:38:37.660Z,7.9
2023-03-06T08:39:54.640Z,7.8
2023-03-06T08:41:11.667Z,7.7
2023-03-06T08:42:28.756Z,7.7
2023-03-06T08:43:45.697Z,7.8
2023-03-06T08:45:02.653Z,7.8
2023-03-06T08:46:19.673Z,7.8
2023-03-06T08:47:36.854Z,7.8
2023-03-06T08:48:53.671Z,7.7
2023-03-06T08:50:10.676Z,7.8
2023-03-06T08:51:28.230Z,7.9
2023-03-06T08:52:45.674Z,7.9
2023-03-06T08:54:02.674Z,7.8
2023-03-06T08:55:19.706Z,7.8
2023-03-06T08:56:36.654Z,7.8
2023-03-06T08:57:53.679Z,7.9
2023-03-06T08:59:10.802Z,7.9
2023-03-06T09:00:28.609Z,7.8
2023-03-06T09:01:47.746Z,7.8
2023-03-06T09:03:04.717Z,7.7
2023-03-06T09:04:21.654Z,7.7
2023-03-06T09:05:38.673Z,7.8
2023-03-06T09:06:55.679Z,7.8
2023-03-06T09:08:12.708Z,7.7
2023-03-06T09:09:29.680Z,7.5
2023-03-06T09:10:46.762Z,7.4
2023-03-06T09:12:03.708Z,7.5
2023-03-06T09:13:20.750Z,7.5
2023-03-06T09:14:37.710Z,7.4
2023-03-06T09:15:54.718Z,7.3
2023-03-06T09:17:11.689Z,7.6
2023-03-06T09:18:28.704Z,7.9
2023-03-06T09:19:45.777Z,8
2023-03-06T09:21:02.747Z,8
2023-03-06T09:22:19.689Z,8.1
2023-03-06T09:23:36.740Z,8.3
2023-03-06T09:24:53.708Z,8.5
2023-03-06T09:26:10.780Z,8.7
2023-03-06T09:27:27.714Z,8.7
2023-03-06T09:28:44.739Z,8.8
2023-03-06T09:30:01.765Z,8.9
2023-03-06T09:31:18.815Z,9
2023-03-06T09:32:35.876Z,8.8
2023-03-06T09:33:52.748Z,8.9
2023-03-06T09:35:09.713Z,9
2023-03-06T09:36:26.718Z,9.1
2023-03-06T09:37:43.732Z,9
2023-03-06T09:39:00.747Z,9
2023-03-06T09:40:17.712Z,8.8
2023-03-06T09:41:34.717Z,8.7
2023-03-06T09:42:51.728Z,8.7
2023-03-06T09:44:08.790Z,8.7
2023-03-06T09:45:25.839Z,8.7
2023-03-06T09:46:42.720Z,8.6
2023-03-06T09:47:59.716Z,8.7
2023-03-06T09:49:16.868Z,8.6
2023-03-06T09:50:33.775Z,8.7
2023-03-06T09:51:50.735Z,8.9
2023-03-06T09:53:07.734Z,9.3
2023-03-06T09:54:24.791Z,9.6
2023-03-06T09:55:41.833Z,9.7
2023-03-06T09:56:58.752Z,9.6
2023-03-06T09:58:15.762Z,9.6
2023-03-06T09:59:32.878Z,9.5
2023-03-06T10:00:50.169Z,9.6
2023-03-06T10:02:06.939Z,9.7
2023-03-06T10:03:23.802Z,9.7
2023-03-06T10:04:40.896Z,9.7
2023-03-06T10:05:57.804Z,9.6
2023-03-06T10:07:15.119Z,9.6
2023-03-06T10:08:31.751Z,9.8
2023-03-06T10:09:48.827Z,10.1
2023-03-06T10:11:05.799Z,10.2
2023-03-06T10:12:24.724Z,10.1
2023-03-06T10:13:39.771Z,10
2023-03-06T10:14:56.785Z,9.9
2023-03-06T10:16:13.896Z,9.8
2023-03-06T10:17:30.814Z,9.7
2023-03-06T10:18:47.837Z,9.6
2023-03-06T10:20:04.779Z,9.5
2023-03-06T10:21:21.779Z,9.4
2023-03-06T10:22:38.847Z,9.4
2023-03-06T10:23:55.799Z,9.4
2023-03-06T10:25:12.778Z,9.5
2023-03-06T10:26:29.877Z,9.6
2023-03-06T10:27:46.824Z,9.7
2023-03-06T10:29:04.407Z,9.8
2023-03-06T10:30:21.896Z,9.7
2023-03-06T10:31:38.806Z,9.7
2023-03-06T10:32:55.874Z,9.8
2023-03-06T10:34:12.839Z,9.7
2023-03-06T10:35:30.867Z,9.3
2023-03-06T10:36:46.867Z,9.1
2023-03-06T10:38:03.824Z,8.9
2023-03-06T10:39:20.852Z,8.8
2023-03-06T10:40:37.845Z,8.7
2023-03-06T10:41:54.822Z,8.8
2023-03-06T10:43:12.367Z,8.7
2023-03-06T10:44:28.788Z,8.7
2023-03-06T10:45:49.125Z,8.6
2023-03-06T10:47:02.861Z,8.7
2023-03-06T10:48:19.822Z,9
2023-03-06T10:49:36.823Z,9.2
2023-03-06T10:50:53.828Z,9.2
2023-03-06T10:52:10.800Z,9.3
2023-03-06T10:53:27.833Z,9.4
2023-03-06T10:54:44.869Z,9.6
2023-03-06T10:56:01.854Z,9.8
2023-03-06T10:57:18.881Z,9.9
2023-03-06T10:58:35.925Z,10.1
2023-03-06T10:59:52.830Z,10.3
2023-03-06T11:01:09.832Z,10.3
2023-03-06T11:02:26.906Z,10.3
2023-03-06T11:03:43.907Z,10.2
2023-03-06T11:05:00.875Z,10.2
2023-03-06T11:06:17.835Z,10.3
2023-03-06T11:07:34.882Z,10.5
2023-03-06T11:08:51.846Z,10.7
2023-03-06T11:10:08.835Z,10.8
2023-03-06T11:11:37.009Z,10.7
2023-03-06T11:12:42.859Z,10.5
2023-03-06T11:13:59.865Z,10.6
2023-03-06T11:15:16.837Z,10.7
2023-03-06T11:16:33.867Z,10.7
2023-03-06T11:17:50.970Z,10.6
2023-03-06T11:19:07.872Z,10.5
2023-03-06T11:20:24.858Z,10.3
2023-03-06T11:21:41.848Z,10.1
2023-03-06T11:22:59.583Z,9.9
2023-03-06T11:24:15.882Z,9.7
2023-03-06T11:25:32.898Z,9.6
2023-03-06T11:26:51.089Z,9.6
2023-03-06T11:28:06.933Z,9.5
2023-03-06T11:29:23.920Z,9.5
2023-03-06T11:30:40.857Z,9.5
2023-03-06T11:31:57.867Z,9.5
2023-03-06T11:33:14.903Z,9.6
2023-03-06T11:34:31.879Z,9.7
2023-03-06T11:35:48.881Z,9.7
2023-03-06T11:37:05.898Z,9.8
2023-03-06T11:38:22.902Z,10.1
2023-03-06T11:39:39.937Z,10.2
2023-03-06T11:40:56.889Z,10.2
2023-03-06T11:42:13.923Z,10.3
2023-03-06T11:43:30.902Z,10.2
2023-03-06T11:44:47.902Z,10.1
2023-03-06T11:46:04.898Z,10
2023-03-06T11:47:21.867Z,10
2023-03-06T11:48:38.944Z,9.9
2023-03-06T11:49:55.983Z,9.8
2023-03-06T11:51:12.953Z,9.8
2023-03-06T11:52:29.885Z,9.6
2023-03-06T11:53:49.541Z,9.6
2023-03-06T11:55:06.903Z,9.7
2023-03-06T11:56:23.911Z,10
2023-03-06T11:57:40.887Z,10.3
2023-03-06T11:58:57.928Z,10.3
2023-03-06T12:00:14.917Z,10.2
2023-03-06T12:01:31.945Z,9.9
2023-03-06T12:02:48.898Z,9.8
2023-03-06T12:04:05.951Z,9.6
2023-03-06T12:05:23.058Z,9.4
2023-03-06T12:06:39.906Z,9.2
2023-03-06T12:07:56.899Z,9.1
2023-03-06T12:09:13.950Z,9
2023-03-06T12:10:30.923Z,8.9
2023-03-06T12:11:47.941Z,8.9
2023-03-06T12:13:04.926Z,9.1
2023-03-06T12:14:21.918Z,9.2
2023-03-06T12:15:38.917Z,9.4
2023-03-06T12:16:55.972Z,9.4
2023-03-06T12:18:13.200Z,9.3
2023-03-06T12:19:29.959Z,9.4
2023-03-06T12:20:46.927Z,9.5
2023-03-06T12:22:03.921Z,9.5
2023-03-06T12:23:20.951Z,9.4
2023-03-06T12:24:37.929Z,9.3
2023-03-06T12:25:54.939Z,9.3
2023-03-06T12:27:11.927Z,9.3
2023-03-06T12:28:28.992Z,9.4
2023-03-06T12:29:46.002Z,9.5
2023-03-06T12:31:02.948Z,9.7
2023-03-06T12:32:20.039Z,10
2023-03-06T12:33:36.971Z,10.2
2023-03-06T12:34:54.021Z,10.4
2023-03-06T12:36:10.965Z,10.6
2023-03-06T12:37:27.946Z,10.6
2023-03-06T12:38:44.986Z,10.6
2023-03-06T12:40:02.015Z,10.7
2023-03-06T12:41:18.946Z,10.9
2023-03-06T12:42:35.969Z,11
2023-03-06T12:43:53.017Z,11
2023-03-06T12:45:09.981Z,11.1
2023-03-06T12:46:27.011Z,11.2
2023-03-06T12:47:43.976Z,11.1
2023-03-06T12:49:00.979Z,11
2023-03-06T12:50:17.999Z,10.9
2023-03-06T12:51:34.991Z,10.7
2023-03-06T12:52:52.003Z,10.5
2023-03-06T12:54:08.980Z,10.2
2023-03-06T12:55:26.144Z,10
2023-03-06T12:56:43.005Z,9.9
2023-03-06T12:57:59.974Z,9.8
2023-03-06T12:59:16.977Z,9.7
2023-03-06T13:00:33.986Z,9.6
2023-03-06T13:01:51.048Z,9.6
2023-03-06T13:03:08.059Z,9.7
2023-03-06T13:04:24.991Z,9.7
2023-03-06T13:05:42.039Z,9.7
2023-03-06T13:06:58.986Z,9.5
2023-03-06T13:08:16.037Z,9.1
2023-03-06T13:09:32.992Z,8.6
2023-03-06T13:10:49.994Z,7.8
2023-03-06T13:12:06.998Z,7.3
2023-03-06T13:13:24.029Z,6.8
2023-03-06T13:14:48.617Z,6.5
2023-03-06T13:15:58.016Z,6.5
2023-03-06T13:17:15.016Z,6.4
2023-03-06T13:18:32.013Z,6.3
2023-03-06T13:19:49.052Z,6.1
2023-03-06T13:21:06.025Z,5.9
2023-03-06T13:22:23.026Z,5.6
2023-03-06T13:23:40.028Z,5.3
2023-03-06T13:25:03.595Z,5.3
2023-03-06T13:26:15.019Z,5.2
2023-03-06T13:27:32.015Z,5.1
2023-03-06T13:28:49.008Z,5.1
2023-03-06T13:30:06.085Z,5.1
2023-03-06T13:31:27.415Z,5.2
2023-03-06T13:32:40.081Z,5.2
2023-03-06T13:33:57.038Z,5.1
2023-03-06T13:35:14.089Z,5
2023-03-06T13:36:31.059Z,4.8
2023-03-06T13:37:48.030Z,4.7
2023-03-06T13:39:05.027Z,4.8
2023-03-06T13:40:22.070Z,4.8
2023-03-06T13:41:39.093Z,4.8
2023-03-06T13:42:56.046Z,4.7
2023-03-06T13:44:13.029Z,4.7
2023-03-06T13:45:30.422Z,4.7
2023-03-06T13:46:47.053Z,4.7
2023-03-06T13:48:30.181Z,4.7
2023-03-06T13:49:21.062Z,4.6
2023-03-06T13:50:38.086Z,4.5
2023-03-06T13:51:55.131Z,4.4
2023-03-06T13:53:12.307Z,4.3
2023-03-06T13:54:29.112Z,4.2
2023-03-06T13:55:46.146Z,4.3
2023-03-06T13:57:03.058Z,4.5
2023-03-06T13:58:20.070Z,4.6
2023-03-06T13:59:37.063Z,4.7
2023-03-06T14:00:54.110Z,4.7
2023-03-06T14:02:11.137Z,4.7
2023-03-06T14:03:28.103Z,4.8
2023-03-06T14:04:45.072Z,4.8
2023-03-06T14:06:02.080Z,4.7
2023-03-06T14:07:19.200Z,4.5
2023-03-06T14:08:36.060Z,4.6
2023-03-06T14:09:53.068Z,4.7
2023-03-06T14:11:10.100Z,4.8
2023-03-06T14:12:27.069Z,4.8
2023-03-06T14:13:47.294Z,4.8
2023-03-06T14:15:01.092Z,4.9
2023-03-06T14:16:18.797Z,5
2023-03-06T14:17:36.073Z,4.9
2023-03-06T14:18:53.076Z,4.7
2023-03-06T14:20:10.136Z,4.5
2023-03-06T14:21:27.143Z,4.5
2023-03-06T14:22:44.192Z,4.6
2023-03-06T14:24:01.131Z,4.8
2023-03-06T14:25:18.075Z,4.7
2023-03-06T14:26:35.120Z,4.6
2023-03-06T14:27:52.678Z,4.5
2023-03-06T14:29:09.106Z,4.6
2023-03-06T14:30:26.447Z,4.7
2023-03-06T14:31:43.150Z,5
2023-03-06T14:33:00.127Z,5.3
2023-03-06T14:34:17.135Z,5.6
2023-03-06T14:35:34.158Z,5.7
2023-03-06T14:36:51.110Z,5.9
2023-03-06T14:38:08.165Z,6.1
2023-03-06T14:39:25.097Z,6.2
2023-03-06T14:40:42.102Z,6.2
2023-03-06T14:41:59.161Z,6.2
2023-03-06T14:43:16.163Z,6.1
2023-03-06T14:44:33.123Z,5.9
2023-03-06T14:45:50.141Z,5.7
2023-03-06T14:47:07.115Z,5.7
2023-03-06T14:48:24.145Z,5.7
2023-03-06T14:49:41.150Z,5.7
2023-03-06T14:50:58.235Z,5.8
2023-03-06T14:52:15.128Z,6
2023-03-06T14:53:32.193Z,6.3
2023-03-06T14:54:49.172Z,6.6
2023-03-06T14:56:06.427Z,6.9
2023-03-06T14:57:23.130Z,7
2023-03-06T14:58:40.174Z,7.3
2023-03-06T14:59:57.151Z,7.5
2023-03-06T15:01:14.159Z,7.8
2023-03-06T15:02:31.172Z,8.1
2023-03-06T15:03:48.150Z,8.4
2023-03-06T15:05:05.151Z,8.5
2023-03-06T15:06:22.222Z,8.7
2023-03-06T15:07:39.135Z,8.8
2023-03-06T15:08:56.287Z,8.9
2023-03-06T15:10:13.165Z,9
2023-03-06T15:11:30.196Z,9.1
2023-03-06T15:12:47.145Z,9.1
2023-03-06T15:14:04.178Z,9.3
2023-03-06T15:15:21.139Z,9.3
2023-03-06T15:16:38.215Z,9.4
2023-03-06T15:17:55.195Z,9.4
2023-03-06T15:19:12.146Z,9.5
2023-03-06T15:20:29.171Z,9.4
2023-03-06T15:21:46.187Z,9.4
2023-03-06T15:23:03.211Z,9.4
2023-03-06T15:24:20.198Z,9.5
2023-03-06T15:25:37.183Z,9.4
2023-03-06T15:26:54.158Z,9.4
2023-03-06T15:28:11.192Z,9.4
2023-03-06T15:29:28.204Z,9.3
2023-03-06T15:30:45.264Z,9.2
2023-03-06T15:32:02.488Z,9
2023-03-06T15:33:19.219Z,8.8
2023-03-06T15:34:36.194Z,8.5
2023-03-06T15:35:53.261Z,8.3
2023-03-06T15:37:10.179Z,8
2023-03-06T15:38:27.258Z,7.8
2023-03-06T15:39:44.286Z,7.7
2023-03-06T15:41:01.170Z,7.7
2023-03-06T15:42:18.281Z,7.9
2023-03-06T15:43:35.244Z,8
2023-03-06T15:44:52.193Z,8.1
2023-03-06T15:46:09.253Z,8.3
2023-03-06T15:47:26.210Z,8.4
2023-03-06T15:48:43.237Z,8.4
2023-03-06T15:50:00.438Z,8.5
2023-03-06T15:51:17.413Z,8.5
2023-03-06T15:52:34.223Z,8.5
2023-03-06T15:53:51.438Z,8.6
2023-03-06T15:55:08.266Z,8.5
2023-03-06T15:56:25.240Z,8.6
2023-03-06T15:57:42.240Z,8.5
2023-03-06T15:58:59.214Z,8.3
2023-03-06T16:00:26.799Z,8
2023-03-06T16:01:36.106Z,7.8
2023-03-06T16:02:51.214Z,7.6
2023-03-06T16:04:08.255Z,7.4
2023-03-06T16:05:25.221Z,7.2
2023-03-06T16:06:42.266Z,7
2023-03-06T16:07:59.253Z,7
2023-03-06T16:09:16.225Z,6.9
2023-03-06T16:10:33.271Z,6.9
2023-03-06T16:11:50.233Z,6.9
2023-03-06T16:13:07.297Z,7
2023-03-06T16:14:24.274Z,7
2023-03-06T16:15:41.400Z,7
2023-03-06T16:16:58.335Z,6.9
2023-03-06T16:18:15.244Z,6.8
2023-03-06T16:19:32.240Z,6.8
2023-03-06T16:20:49.234Z,6.7
2023-03-06T16:22:06.278Z,6.7
2023-03-06T16:23:23.248Z,6.7
2023-03-06T16:24:40.290Z,6.8
2023-03-06T16:25:57.329Z,6.8
2023-03-06T16:27:14.269Z,6.9
2023-03-06T16:28:31.273Z,6.9
2023-03-06T16:29:48.268Z,6.8
2023-03-06T16:31:05.343Z,6.6
2023-03-06T16:32:22.286Z,6.4
2023-03-06T16:33:39.280Z,6.3
2023-03-06T16:34:56.244Z,6.3
2023-03-06T16:36:13.286Z,6.3
2023-03-06T16:37:30.270Z,6.4
2023-03-06T16:38:47.249Z,6.5
2023-03-06T16:40:04.301Z,6.4
2023-03-06T16:41:21.349Z,6.4
2023-03-06T16:42:38.264Z,6.3
2023-03-06T16:43:55.275Z,6.2
2023-03-06T16:45:12.265Z,6.1
2023-03-06T16:46:29.321Z,6
2023-03-06T16:47:46.336Z,5.9
2023-03-06T16:49:03.276Z,5.8
2023-03-06T16:50:20.289Z,5.8
2023-03-06T16:51:37.298Z,5.8
2023-03-06T16:52:54.303Z,5.8
2023-03-06T16:54:11.336Z,5.7
2023-03-06T16:55:28.285Z,5.7
2023-03-06T16:56:45.347Z,5.7
2023-03-06T16:58:02.310Z,5.6
2023-03-06T16:59:19.335Z,5.8
2023-03-06T17:00:36.304Z,5.8
2023-03-06T17:01:53.316Z,5.9
2023-03-06T17:03:10.323Z,5.9
2023-03-06T17:04:27.722Z,6.1
2023-03-06T17:05:44.291Z,6.2
2023-03-06T17:07:01.314Z,6.3
2023-03-06T17:08:18.307Z,6.3
2023-03-06T17:09:35.346Z,6.5
2023-03-06T17:10:52.402Z,6.5
2023-03-06T17:12:09.354Z,6.7
2023-03-06T17:13:26.440Z,6.9
2023-03-06T17:14:43.369Z,6.9
2023-03-06T17:16:00.360Z,7
2023-03-06T17:17:17.298Z,6.9
2023-03-06T17:18:34.315Z,6.8
2023-03-06T17:19:51.312Z,6.7
2023-03-06T17:21:08.352Z,6.6
2023-03-06T17:22:25.424Z,6.5
2023-03-06T17:23:42.324Z,6.3
2023-03-06T17:24:59.577Z,6.2
2023-03-06T17:26:16.352Z,6.2
2023-03-06T17:27:33.576Z,6
2023-03-06T17:28:50.375Z,5.9
2023-03-06T17:30:07.742Z,5.9
2023-03-06T17:31:24.420Z,5.8
2023-03-06T17:32:41.471Z,5.6
2023-03-06T17:33:58.421Z,5.5
2023-03-06T17:35:15.331Z,5.4
2023-03-06T17:36:32.325Z,5.4
2023-03-06T17:37:49.332Z,5.3
2023-03-06T17:39:06.380Z,5.3
2023-03-06T17:40:23.341Z,5.3
2023-03-06T17:41:40.340Z,5.3
2023-03-06T17:42:57.456Z,5.3
2023-03-06T17:44:14.577Z,5.5
2023-03-06T17:45:31.428Z,5.5